LYBE/BEG METAR and TAF weather

Enter ICAO airport designator
Station Type Date Time Source
LYBE METAR 2020/01/23 18:30 UTC NOAA

LYBE 231830Z 09004KT 6000 NSC M01/M03 Q1035 NOSIG


Station Type Date Time Source
LYBE Decoded METAR 2020/01/23 18:30 UTC NOAA

Beograd / Surcin, Serbia and Montenegro (LYBE) 44-49N 020-17E 99M
Jan 23, 2020 - 01:30 PM EST / 2020.01.23 1830 UTC
Wind: from the E (090 degrees) at 5 MPH (4 KT):0
Visibility: 3 mile(s):0
Temperature: 30 F (-1 C)
Windchill: 24 F (-4 C):1
Dew Point: 26 F (-3 C)
Relative Humidity: 86%
Pressure (altimeter): 30.56 in. Hg (1035 hPa)
ob: LYBE 231830Z 09004KT 6000 NSC M01/M03 Q1035 NOSIG
cycle: 18

Station Type Date Time Source
LYBE TAF 2020/01/23 18:26 UTC NOAA

TAF LYBE 231700Z 2318/2418 14005KT 7000 NSC TX04/2413Z TNM05/2406Z
BECMG 2319/2321 5000 BR
TEMPO 2400/2407 1500 PROB30 2405/2407 0600 FZFG
BECMG 2409/2411 8000 NSW

Example: see airport list